sensor_id;sensor_type;location;lat;lon;timestamp;P1;durP1;ratioP1;P2;durP2;ratioP2
79308;SDS011;68767;53.078;7.386;2023-04-25T00:02:14;31.95;;;5.32;;
79308;SDS011;68767;53.078;7.386;2023-04-25T00:04:41;27.58;;;4.90;;
79308;SDS011;68767;53.078;7.386;2023-04-25T00:07:09;27.15;;;4.82;;
79308;SDS011;68767;53.078;7.386;2023-04-25T00:09:36;38.17;;;5.53;;
79308;SDS011;68767;53.078;7.386;2023-04-25T00:12:03;32.05;;;4.90;;
79308;SDS011;68767;53.078;7.386;2023-04-25T00:14:31;20.45;;;4.15;;
79308;SDS011;68767;53.078;7.386;2023-04-25T00:17:00;25.48;;;5.15;;
79308;SDS011;68767;53.078;7.386;2023-04-25T00:19:29;27.55;;;5.35;;
79308;SDS011;68767;53.078;7.386;2023-04-25T00:21:56;21.13;;;4.65;;
79308;SDS011;68767;53.078;7.386;2023-04-25T00:24:23;24.52;;;4.90;;
79308;SDS011;68767;53.078;7.386;2023-04-25T00:26:49;25.65;;;4.43;;
79308;SDS011;68767;53.078;7.386;2023-04-25T00:29:16;25.27;;;4.95;;
79308;SDS011;68767;53.078;7.386;2023-04-25T00:31:43;33.95;;;4.45;;
79308;SDS011;68767;53.078;7.386;2023-04-25T00:34:10;22.77;;;5.10;;
79308;SDS011;68767;53.078;7.386;2023-04-25T00:36:37;18.10;;;3.95;;
79308;SDS011;68767;53.078;7.386;2023-04-25T00:39:04;25.75;;;6.35;;
79308;SDS011;68767;53.078;7.386;2023-04-25T00:41:31;23.77;;;5.47;;
79308;SDS011;68767;53.078;7.386;2023-04-25T00:43:59;21.45;;;5.22;;
79308;SDS011;68767;53.078;7.386;2023-04-25T00:46:27;20.27;;;5.15;;
79308;SDS011;68767;53.078;7.386;2023-04-25T00:48:54;20.52;;;5.03;;
79308;SDS011;68767;53.078;7.386;2023-04-25T00:51:21;16.50;;;5.07;;
79308;SDS011;68767;53.078;7.386;2023-04-25T00:53:49;18.38;;;3.90;;
79308;SDS011;68767;53.078;7.386;2023-04-25T00:56:17;28.05;;;4.82;;
79308;SDS011;68767;53.078;7.386;2023-04-25T00:58:44;18.67;;;4.93;;
79308;SDS011;68767;53.078;7.386;2023-04-25T01:01:12;20.60;;;5.05;;
79308;SDS011;68767;53.078;7.386;2023-04-25T01:03:39;19.08;;;5.05;;
79308;SDS011;68767;53.078;7.386;2023-04-25T01:06:10;22.45;;;3.80;;
79308;SDS011;68767;53.078;7.386;2023-04-25T01:08:37;17.67;;;4.70;;
79308;SDS011;68767;53.078;7.386;2023-04-25T01:11:05;15.95;;;3.97;;
79308;SDS011;68767;53.078;7.386;2023-04-25T01:13:33;21.60;;;4.20;;
79308;SDS011;68767;53.078;7.386;2023-04-25T01:16:01;22.20;;;4.10;;
79308;SDS011;68767;53.078;7.386;2023-04-25T01:18:29;12.90;;;2.83;;
79308;SDS011;68767;53.078;7.386;2023-04-25T01:20:56;18.35;;;4.45;;
79308;SDS011;68767;53.078;7.386;2023-04-25T01:23:31;26.08;;;4.10;;
79308;SDS011;68767;53.078;7.386;2023-04-25T01:26:00;22.90;;;5.25;;
79308;SDS011;68767;53.078;7.386;2023-04-25T01:28:28;21.05;;;4.00;;
79308;SDS011;68767;53.078;7.386;2023-04-25T01:30:56;22.33;;;4.75;;
79308;SDS011;68767;53.078;7.386;2023-04-25T01:33:24;30.50;;;4.57;;
79308;SDS011;68767;53.078;7.386;2023-04-25T01:35:51;16.95;;;4.00;;
79308;SDS011;68767;53.078;7.386;2023-04-25T01:38:19;23.48;;;4.13;;
79308;SDS011;68767;53.078;7.386;2023-04-25T01:40:46;25.63;;;4.88;;
79308;SDS011;68767;53.078;7.386;2023-04-25T01:43:14;17.60;;;3.80;;
79308;SDS011;68767;53.078;7.386;2023-04-25T01:45:41;15.60;;;4.75;;
79308;SDS011;68767;53.078;7.386;2023-04-25T01:48:10;18.25;;;3.85;;
79308;SDS011;68767;53.078;7.386;2023-04-25T01:50:40;22.95;;;4.10;;
79308;SDS011;68767;53.078;7.386;2023-04-25T01:53:08;25.45;;;4.32;;
79308;SDS011;68767;53.078;7.386;2023-04-25T01:55:37;19.80;;;4.38;;
79308;SDS011;68767;53.078;7.386;2023-04-25T01:58:07;18.50;;;4.05;;
79308;SDS011;68767;53.078;7.386;2023-04-25T02:00:54;14.38;;;3.95;;
79308;SDS011;68767;53.078;7.386;2023-04-25T02:03:24;23.73;;;4.50;;
79308;SDS011;68767;53.078;7.386;2023-04-25T02:05:51;20.48;;;4.05;;
79308;SDS011;68767;53.078;7.386;2023-04-25T02:08:19;17.38;;;4.47;;
79308;SDS011;68767;53.078;7.386;2023-04-25T02:10:46;20.35;;;4.03;;
79308;SDS011;68767;53.078;7.386;2023-04-25T02:13:16;16.38;;;4.43;;
79308;SDS011;68767;53.078;7.386;2023-04-25T02:15:56;15.38;;;3.60;;
79308;SDS011;68767;53.078;7.386;2023-04-25T02:18:23;14.60;;;3.88;;
79308;SDS011;68767;53.078;7.386;2023-04-25T02:20:51;25.27;;;4.05;;
79308;SDS011;68767;53.078;7.386;2023-04-25T02:23:19;25.05;;;4.00;;
79308;SDS011;68767;53.078;7.386;2023-04-25T02:25:46;18.52;;;3.35;;
79308;SDS011;68767;53.078;7.386;2023-04-25T02:28:13;15.90;;;3.30;;
79308;SDS011;68767;53.078;7.386;2023-04-25T02:30:40;17.95;;;3.78;;
79308;SDS011;68767;53.078;7.386;2023-04-25T02:33:07;19.38;;;3.97;;
79308;SDS011;68767;53.078;7.386;2023-04-25T02:35:35;16.33;;;3.88;;
79308;SDS011;68767;53.078;7.386;2023-04-25T02:38:02;20.02;;;3.85;;
79308;SDS011;68767;53.078;7.386;2023-04-25T02:40:28;15.88;;;3.40;;
79308;SDS011;68767;53.078;7.386;2023-04-25T02:42:56;21.73;;;4.20;;
79308;SDS011;68767;53.078;7.386;2023-04-25T02:45:25;23.88;;;4.32;;
79308;SDS011;68767;53.078;7.386;2023-04-25T02:47:52;17.67;;;3.47;;
79308;SDS011;68767;53.078;7.386;2023-04-25T02:50:19;14.52;;;2.95;;
79308;SDS011;68767;53.078;7.386;2023-04-25T02:52:46;14.05;;;2.97;;
79308;SDS011;68767;53.078;7.386;2023-04-25T02:55:17;18.05;;;3.75;;
79308;SDS011;68767;53.078;7.386;2023-04-25T02:57:45;19.92;;;4.15;;
79308;SDS011;68767;53.078;7.386;2023-04-25T03:00:19;25.90;;;4.88;;
79308;SDS011;68767;53.078;7.386;2023-04-25T03:02:46;17.58;;;3.60;;
79308;SDS011;68767;53.078;7.386;2023-04-25T03:05:14;19.63;;;3.40;;
79308;SDS011;68767;53.078;7.386;2023-04-25T03:07:41;26.02;;;5.35;;
79308;SDS011;68767;53.078;7.386;2023-04-25T03:10:10;26.58;;;3.20;;
79308;SDS011;68767;53.078;7.386;2023-04-25T03:12:37;21.38;;;3.00;;
79308;SDS011;68767;53.078;7.386;2023-04-25T03:15:04;17.05;;;2.92;;
79308;SDS011;68767;53.078;7.386;2023-04-25T03:17:32;16.25;;;2.53;;
79308;SDS011;68767;53.078;7.386;2023-04-25T03:19:59;21.13;;;3.90;;
79308;SDS011;68767;53.078;7.386;2023-04-25T03:22:27;16.33;;;3.47;;
79308;SDS011;68767;53.078;7.386;2023-04-25T03:24:55;25.02;;;3.45;;
79308;SDS011;68767;53.078;7.386;2023-04-25T03:27:21;11.15;;;2.60;;
79308;SDS011;68767;53.078;7.386;2023-04-25T03:29:50;12.98;;;2.75;;
79308;SDS011;68767;53.078;7.386;2023-04-25T03:32:17;14.10;;;2.63;;
79308;SDS011;68767;53.078;7.386;2023-04-25T03:34:45;11.98;;;3.20;;
79308;SDS011;68767;53.078;7.386;2023-04-25T03:37:12;9.48;;;2.03;;
79308;SDS011;68767;53.078;7.386;2023-04-25T03:39:39;10.95;;;2.58;;
79308;SDS011;68767;53.078;7.386;2023-04-25T03:42:06;16.15;;;2.65;;
79308;SDS011;68767;53.078;7.386;2023-04-25T03:44:33;12.57;;;2.80;;
79308;SDS011;68767;53.078;7.386;2023-04-25T03:47:00;14.27;;;3.00;;
79308;SDS011;68767;53.078;7.386;2023-04-25T03:49:28;10.02;;;2.45;;
79308;SDS011;68767;53.078;7.386;2023-04-25T03:51:59;13.88;;;2.53;;
79308;SDS011;68767;53.078;7.386;2023-04-25T03:54:31;14.90;;;2.85;;
79308;SDS011;68767;53.078;7.386;2023-04-25T03:57:04;10.18;;;2.25;;
79308;SDS011;68767;53.078;7.386;2023-04-25T03:59:35;17.60;;;2.67;;
79308;SDS011;68767;53.078;7.386;2023-04-25T04:02:02;20.63;;;3.47;;
79308;SDS011;68767;53.078;7.386;2023-04-25T04:04:31;11.52;;;3.50;;
79308;SDS011;68767;53.078;7.386;2023-04-25T04:06:59;14.95;;;2.80;;
79308;SDS011;68767;53.078;7.386;2023-04-25T04:09:30;15.70;;;3.42;;
79308;SDS011;68767;53.078;7.386;2023-04-25T04:11:59;11.82;;;2.47;;
79308;SDS011;68767;53.078;7.386;2023-04-25T04:14:29;14.77;;;2.80;;
79308;SDS011;68767;53.078;7.386;2023-04-25T04:16:56;10.90;;;2.53;;
79308;SDS011;68767;53.078;7.386;2023-04-25T04:19:23;13.05;;;2.53;;
79308;SDS011;68767;53.078;7.386;2023-04-25T04:22:16;21.30;;;3.08;;
79308;SDS011;68767;53.078;7.386;2023-04-25T04:24:45;13.77;;;2.55;;
79308;SDS011;68767;53.078;7.386;2023-04-25T04:27:19;10.63;;;2.30;;
79308;SDS011;68767;53.078;7.386;2023-04-25T04:29:52;9.95;;;3.53;;
79308;SDS011;68767;53.078;7.386;2023-04-25T04:32:28;14.75;;;4.10;;
79308;SDS011;68767;53.078;7.386;2023-04-25T04:34:57;9.55;;;2.35;;
79308;SDS011;68767;53.078;7.386;2023-04-25T04:37:24;10.23;;;2.63;;
79308;SDS011;68767;53.078;7.386;2023-04-25T04:39:51;8.30;;;1.90;;
79308;SDS011;68767;53.078;7.386;2023-04-25T04:42:25;10.85;;;2.65;;
79308;SDS011;68767;53.078;7.386;2023-04-25T04:45:04;11.18;;;2.25;;
79308;SDS011;68767;53.078;7.386;2023-04-25T04:48:06;6.82;;;2.42;;
79308;SDS011;68767;53.078;7.386;2023-04-25T04:50:54;14.38;;;2.72;;
79308;SDS011;68767;53.078;7.386;2023-04-25T04:53:50;14.05;;;2.28;;
79308;SDS011;68767;53.078;7.386;2023-04-25T04:56:17;11.77;;;2.20;;
79308;SDS011;68767;53.078;7.386;2023-04-25T04:58:51;9.85;;;2.40;;
79308;SDS011;68767;53.078;7.386;2023-04-25T05:01:39;13.75;;;2.85;;
79308;SDS011;68767;53.078;7.386;2023-04-25T05:04:24;17.38;;;3.03;;
79308;SDS011;68767;53.078;7.386;2023-04-25T05:07:03;13.52;;;2.30;;
79308;SDS011;68767;53.078;7.386;2023-04-25T05:09:30;13.73;;;2.63;;
79308;SDS011;68767;53.078;7.386;2023-04-25T05:12:17;12.38;;;2.38;;
79308;SDS011;68767;53.078;7.386;2023-04-25T05:14:58;9.63;;;4.00;;
79308;SDS011;68767;53.078;7.386;2023-04-25T05:17:40;8.13;;;2.90;;
79308;SDS011;68767;53.078;7.386;2023-04-25T05:20:27;12.32;;;2.25;;
79308;SDS011;68767;53.078;7.386;2023-04-25T05:23:00;12.35;;;2.90;;
79308;SDS011;68767;53.078;7.386;2023-04-25T05:25:50;12.18;;;2.47;;
79308;SDS011;68767;53.078;7.386;2023-04-25T05:28:37;9.80;;;2.50;;
79308;SDS011;68767;53.078;7.386;2023-04-25T05:31:17;25.02;;;2.85;;
79308;SDS011;68767;53.078;7.386;2023-04-25T05:33:55;11.13;;;2.95;;
79308;SDS011;68767;53.078;7.386;2023-04-25T05:36:27;17.63;;;2.92;;
79308;SDS011;68767;53.078;7.386;2023-04-25T05:38:54;9.85;;;2.53;;
79308;SDS011;68767;53.078;7.386;2023-04-25T05:41:44;15.65;;;2.88;;
79308;SDS011;68767;53.078;7.386;2023-04-25T05:44:25;9.73;;;2.22;;
79308;SDS011;68767;53.078;7.386;2023-04-25T05:47:10;13.10;;;2.42;;
79308;SDS011;68767;53.078;7.386;2023-04-25T05:49:57;8.25;;;2.22;;
79308;SDS011;68767;53.078;7.386;2023-04-25T05:52:50;9.73;;;2.30;;
79308;SDS011;68767;53.078;7.386;2023-04-25T05:55:24;9.40;;;2.20;;
79308;SDS011;68767;53.078;7.386;2023-04-25T05:57:51;14.95;;;2.20;;
79308;SDS011;68767;53.078;7.386;2023-04-25T06:00:18;10.18;;;2.00;;
79308;SDS011;68767;53.078;7.386;2023-04-25T06:02:48;7.25;;;1.80;;
79308;SDS011;68767;53.078;7.386;2023-04-25T06:05:15;6.00;;;1.70;;
79308;SDS011;68767;53.078;7.386;2023-04-25T06:07:45;8.82;;;2.05;;
79308;SDS011;68767;53.078;7.386;2023-04-25T06:10:13;5.10;;;1.70;;
79308;SDS011;68767;53.078;7.386;2023-04-25T06:12:41;5.82;;;1.88;;
79308;SDS011;68767;53.078;7.386;2023-04-25T06:15:08;7.45;;;1.90;;
79308;SDS011;68767;53.078;7.386;2023-04-25T06:17:53;8.13;;;1.60;;
79308;SDS011;68767;53.078;7.386;2023-04-25T06:20:21;7.53;;;1.73;;
79308;SDS011;68767;53.078;7.386;2023-04-25T06:22:52;13.70;;;3.10;;
79308;SDS011;68767;53.078;7.386;2023-04-25T06:25:24;10.05;;;1.85;;
79308;SDS011;68767;53.078;7.386;2023-04-25T06:27:52;8.20;;;1.83;;
79308;SDS011;68767;53.078;7.386;2023-04-25T06:30:19;9.57;;;1.83;;
79308;SDS011;68767;53.078;7.386;2023-04-25T06:32:52;10.50;;;2.38;;
79308;SDS011;68767;53.078;7.386;2023-04-25T06:35:20;7.45;;;2.25;;
79308;SDS011;68767;53.078;7.386;2023-04-25T06:37:47;8.27;;;1.88;;
79308;SDS011;68767;53.078;7.386;2023-04-25T06:40:20;13.93;;;2.25;;
79308;SDS011;68767;53.078;7.386;2023-04-25T06:42:47;10.13;;;2.40;;
79308;SDS011;68767;53.078;7.386;2023-04-25T06:45:33;5.95;;;1.63;;
79308;SDS011;68767;53.078;7.386;2023-04-25T06:48:00;7.53;;;1.90;;
79308;SDS011;68767;53.078;7.386;2023-04-25T06:50:27;9.52;;;2.30;;
79308;SDS011;68767;53.078;7.386;2023-04-25T06:52:54;9.73;;;2.22;;
79308;SDS011;68767;53.078;7.386;2023-04-25T06:55:22;7.03;;;1.55;;
79308;SDS011;68767;53.078;7.386;2023-04-25T06:58:15;8.35;;;1.90;;
79308;SDS011;68767;53.078;7.386;2023-04-25T07:00:59;12.02;;;2.58;;
79308;SDS011;68767;53.078;7.386;2023-04-25T07:03:26;5.63;;;1.33;;
79308;SDS011;68767;53.078;7.386;2023-04-25T07:05:58;7.70;;;1.83;;
79308;SDS011;68767;53.078;7.386;2023-04-25T07:08:25;11.70;;;2.58;;
79308;SDS011;68767;53.078;7.386;2023-04-25T07:10:52;8.80;;;2.35;;
79308;SDS011;68767;53.078;7.386;2023-04-25T07:13:19;4.82;;;1.80;;
79308;SDS011;68767;53.078;7.386;2023-04-25T07:15:46;13.48;;;1.98;;
79308;SDS011;68767;53.078;7.386;2023-04-25T07:18:16;17.38;;;3.15;;
79308;SDS011;68767;53.078;7.386;2023-04-25T07:20:43;8.98;;;2.45;;
79308;SDS011;68767;53.078;7.386;2023-04-25T07:23:11;9.35;;;2.00;;
79308;SDS011;68767;53.078;7.386;2023-04-25T07:25:38;9.90;;;1.98;;
79308;SDS011;68767;53.078;7.386;2023-04-25T07:28:06;4.85;;;2.08;;
79308;SDS011;68767;53.078;7.386;2023-04-25T07:30:33;9.52;;;2.28;;
79308;SDS011;68767;53.078;7.386;2023-04-25T07:33:02;13.93;;;2.08;;
79308;SDS011;68767;53.078;7.386;2023-04-25T07:35:30;8.20;;;1.95;;
79308;SDS011;68767;53.078;7.386;2023-04-25T07:37:58;6.90;;;1.88;;
79308;SDS011;68767;53.078;7.386;2023-04-25T07:40:25;13.60;;;2.75;;
79308;SDS011;68767;53.078;7.386;2023-04-25T07:42:57;9.82;;;2.42;;
79308;SDS011;68767;53.078;7.386;2023-04-25T07:45:45;6.07;;;1.77;;
79308;SDS011;68767;53.078;7.386;2023-04-25T07:48:18;9.25;;;1.88;;
79308;SDS011;68767;53.078;7.386;2023-04-25T07:50:46;10.23;;;1.70;;
79308;SDS011;68767;53.078;7.386;2023-04-25T07:53:14;14.25;;;2.10;;
79308;SDS011;68767;53.078;7.386;2023-04-25T07:55:52;6.28;;;1.33;;
79308;SDS011;68767;53.078;7.386;2023-04-25T07:58:20;5.97;;;1.25;;
79308;SDS011;68767;53.078;7.386;2023-04-25T08:00:56;10.63;;;2.22;;
79308;SDS011;68767;53.078;7.386;2023-04-25T08:03:41;7.47;;;1.70;;
79308;SDS011;68767;53.078;7.386;2023-04-25T08:06:17;10.98;;;2.33;;
79308;SDS011;68767;53.078;7.386;2023-04-25T08:09:02;12.45;;;1.95;;
79308;SDS011;68767;53.078;7.386;2023-04-25T08:11:37;12.65;;;2.30;;
79308;SDS011;68767;53.078;7.386;2023-04-25T08:14:05;10.32;;;1.73;;
79308;SDS011;68767;53.078;7.386;2023-04-25T08:16:33;7.70;;;1.75;;
79308;SDS011;68767;53.078;7.386;2023-04-25T08:19:02;6.05;;;1.40;;
79308;SDS011;68767;53.078;7.386;2023-04-25T08:21:29;8.25;;;1.48;;
79308;SDS011;68767;53.078;7.386;2023-04-25T08:24:01;7.95;;;1.95;;
79308;SDS011;68767;53.078;7.386;2023-04-25T08:26:32;5.88;;;1.70;;
79308;SDS011;68767;53.078;7.386;2023-04-25T08:29:01;7.90;;;1.40;;
79308;SDS011;68767;53.078;7.386;2023-04-25T08:31:28;6.55;;;1.75;;
79308;SDS011;68767;53.078;7.386;2023-04-25T08:33:58;8.25;;;1.30;;
79308;SDS011;68767;53.078;7.386;2023-04-25T08:36:41;11.32;;;1.58;;
79308;SDS011;68767;53.078;7.386;2023-04-25T08:39:22;8.40;;;2.03;;
79308;SDS011;68767;53.078;7.386;2023-04-25T08:42:09;6.30;;;1.95;;
79308;SDS011;68767;53.078;7.386;2023-04-25T08:44:39;12.98;;;2.15;;
79308;SDS011;68767;53.078;7.386;2023-04-25T08:47:06;6.57;;;1.50;;
79308;SDS011;68767;53.078;7.386;2023-04-25T08:49:53;7.55;;;1.48;;
79308;SDS011;68767;53.078;7.386;2023-04-25T08:52:22;8.35;;;1.83;;
79308;SDS011;68767;53.078;7.386;2023-04-25T08:54:52;10.00;;;1.50;;
79308;SDS011;68767;53.078;7.386;2023-04-25T08:57:24;5.22;;;1.20;;
79308;SDS011;68767;53.078;7.386;2023-04-25T08:59:51;7.40;;;1.42;;
79308;SDS011;68767;53.078;7.386;2023-04-25T09:02:20;11.45;;;1.73;;
79308;SDS011;68767;53.078;7.386;2023-04-25T09:04:50;7.80;;;1.50;;
79308;SDS011;68767;53.078;7.386;2023-04-25T09:07:17;11.93;;;1.73;;
79308;SDS011;68767;53.078;7.386;2023-04-25T09:09:48;7.72;;;1.42;;
79308;SDS011;68767;53.078;7.386;2023-04-25T09:12:18;8.40;;;1.40;;
79308;SDS011;68767;53.078;7.386;2023-04-25T09:15:00;10.13;;;1.80;;
79308;SDS011;68767;53.078;7.386;2023-04-25T09:17:56;9.48;;;1.75;;
79308;SDS011;68767;53.078;7.386;2023-04-25T09:20:29;8.20;;;1.73;;
79308;SDS011;68767;53.078;7.386;2023-04-25T09:23:01;7.47;;;2.03;;
79308;SDS011;68767;53.078;7.386;2023-04-25T09:25:34;5.93;;;1.60;;
79308;SDS011;68767;53.078;7.386;2023-04-25T09:30:35;8.27;;;1.48;;
79308;SDS011;68767;53.078;7.386;2023-04-25T09:33:30;8.45;;;2.35;;
79308;SDS011;68767;53.078;7.386;2023-04-25T09:36:07;10.40;;;1.98;;
79308;SDS011;68767;53.078;7.386;2023-04-25T09:38:58;10.73;;;1.88;;
79308;SDS011;68767;53.078;7.386;2023-04-25T09:41:33;7.90;;;1.90;;
79308;SDS011;68767;53.078;7.386;2023-04-25T09:44:04;6.35;;;1.33;;
79308;SDS011;68767;53.078;7.386;2023-04-25T09:46:35;10.32;;;2.58;;
79308;SDS011;68767;53.078;7.386;2023-04-25T09:49:11;4.68;;;1.45;;
79308;SDS011;68767;53.078;7.386;2023-04-25T09:51:58;7.75;;;1.55;;
79308;SDS011;68767;53.078;7.386;2023-04-25T09:54:34;7.18;;;1.58;;
79308;SDS011;68767;53.078;7.386;2023-04-25T09:59:43;8.40;;;1.58;;
79308;SDS011;68767;53.078;7.386;2023-04-25T10:02:15;10.43;;;1.83;;
79308;SDS011;68767;53.078;7.386;2023-04-25T10:04:45;9.50;;;2.20;;
79308;SDS011;68767;53.078;7.386;2023-04-25T10:07:21;9.35;;;1.63;;
79308;SDS011;68767;53.078;7.386;2023-04-25T10:09:54;5.75;;;1.50;;
79308;SDS011;68767;53.078;7.386;2023-04-25T10:12:26;5.68;;;1.70;;
79308;SDS011;68767;53.078;7.386;2023-04-25T10:14:53;6.97;;;1.83;;
79308;SDS011;68767;53.078;7.386;2023-04-25T10:17:21;8.27;;;1.40;;
79308;SDS011;68767;53.078;7.386;2023-04-25T10:19:47;7.07;;;2.00;;
79308;SDS011;68767;53.078;7.386;2023-04-25T10:25:05;6.38;;;2.00;;
79308;SDS011;68767;53.078;7.386;2023-04-25T10:27:34;8.38;;;1.80;;
79308;SDS011;68767;53.078;7.386;2023-04-25T10:32:31;8.52;;;1.20;;
79308;SDS011;68767;53.078;7.386;2023-04-25T10:35:14;6.13;;;1.90;;
79308;SDS011;68767;53.078;7.386;2023-04-25T10:40:37;7.05;;;2.30;;
79308;SDS011;68767;53.078;7.386;2023-04-25T10:48:43;10.10;;;1.85;;
79308;SDS011;68767;53.078;7.386;2023-04-25T10:53:44;8.77;;;1.42;;
79308;SDS011;68767;53.078;7.386;2023-04-25T10:56:19;7.63;;;1.58;;
79308;SDS011;68767;53.078;7.386;2023-04-25T10:58:47;7.55;;;1.60;;
79308;SDS011;68767;53.078;7.386;2023-04-25T11:01:21;5.25;;;1.58;;
79308;SDS011;68767;53.078;7.386;2023-04-25T11:03:57;7.70;;;1.60;;
79308;SDS011;68767;53.078;7.386;2023-04-25T11:06:34;8.07;;;2.30;;
79308;SDS011;68767;53.078;7.386;2023-04-25T11:09:13;8.50;;;2.03;;
79308;SDS011;68767;53.078;7.386;2023-04-25T11:11:40;17.35;;;2.15;;
79308;SDS011;68767;53.078;7.386;2023-04-25T11:14:07;11.90;;;2.45;;
79308;SDS011;68767;53.078;7.386;2023-04-25T11:16:34;10.13;;;2.20;;
79308;SDS011;68767;53.078;7.386;2023-04-25T11:19:02;11.70;;;1.55;;
79308;SDS011;68767;53.078;7.386;2023-04-25T11:21:30;9.75;;;1.65;;
79308;SDS011;68767;53.078;7.386;2023-04-25T11:23:58;9.52;;;2.25;;
79308;SDS011;68767;53.078;7.386;2023-04-25T11:26:26;5.45;;;1.48;;
79308;SDS011;68767;53.078;7.386;2023-04-25T11:28:57;12.60;;;2.17;;
79308;SDS011;68767;53.078;7.386;2023-04-25T11:31:25;7.78;;;2.50;;
79308;SDS011;68767;53.078;7.386;2023-04-25T11:33:53;5.88;;;1.55;;
79308;SDS011;68767;53.078;7.386;2023-04-25T11:36:22;9.77;;;2.08;;
79308;SDS011;68767;53.078;7.386;2023-04-25T11:38:50;10.95;;;1.42;;
79308;SDS011;68767;53.078;7.386;2023-04-25T11:41:18;8.77;;;1.40;;
79308;SDS011;68767;53.078;7.386;2023-04-25T11:43:48;6.78;;;1.75;;
79308;SDS011;68767;53.078;7.386;2023-04-25T11:46:16;7.97;;;2.00;;
79308;SDS011;68767;53.078;7.386;2023-04-25T11:48:43;8.63;;;1.90;;
79308;SDS011;68767;53.078;7.386;2023-04-25T11:51:11;4.30;;;1.60;;
79308;SDS011;68767;53.078;7.386;2023-04-25T11:53:40;6.40;;;1.60;;
79308;SDS011;68767;53.078;7.386;2023-04-25T11:56:09;12.60;;;1.60;;
79308;SDS011;68767;53.078;7.386;2023-04-25T11:58:56;8.43;;;1.50;;
79308;SDS011;68767;53.078;7.386;2023-04-25T12:01:26;5.68;;;1.52;;
79308;SDS011;68767;53.078;7.386;2023-04-25T12:04:09;7.38;;;1.52;;
79308;SDS011;68767;53.078;7.386;2023-04-25T12:06:41;8.27;;;1.80;;
79308;SDS011;68767;53.078;7.386;2023-04-25T12:09:09;9.00;;;1.70;;
79308;SDS011;68767;53.078;7.386;2023-04-25T12:11:47;12.40;;;2.05;;
79308;SDS011;68767;53.078;7.386;2023-04-25T12:14:34;7.22;;;1.80;;
79308;SDS011;68767;53.078;7.386;2023-04-25T12:17:03;7.32;;;1.90;;
79308;SDS011;68767;53.078;7.386;2023-04-25T12:19:36;8.32;;;1.73;;
79308;SDS011;68767;53.078;7.386;2023-04-25T12:22:23;12.52;;;2.22;;
79308;SDS011;68767;53.078;7.386;2023-04-25T12:24:51;8.88;;;2.22;;
79308;SDS011;68767;53.078;7.386;2023-04-25T12:27:20;8.77;;;2.20;;
79308;SDS011;68767;53.078;7.386;2023-04-25T12:29:54;7.68;;;2.25;;
79308;SDS011;68767;53.078;7.386;2023-04-25T12:32:22;9.43;;;2.05;;
79308;SDS011;68767;53.078;7.386;2023-04-25T12:34:49;7.78;;;1.60;;
79308;SDS011;68767;53.078;7.386;2023-04-25T12:37:16;14.00;;;1.52;;
79308;SDS011;68767;53.078;7.386;2023-04-25T12:39:43;6.82;;;1.80;;
79308;SDS011;68767;53.078;7.386;2023-04-25T12:42:10;12.30;;;1.98;;
79308;SDS011;68767;53.078;7.386;2023-04-25T12:44:38;8.75;;;1.60;;
79308;SDS011;68767;53.078;7.386;2023-04-25T12:47:06;7.80;;;1.90;;
79308;SDS011;68767;53.078;7.386;2023-04-25T12:49:33;11.48;;;2.13;;
79308;SDS011;68767;53.078;7.386;2023-04-25T12:52:00;6.88;;;1.58;;
79308;SDS011;68767;53.078;7.386;2023-04-25T12:54:27;9.10;;;1.90;;
79308;SDS011;68767;53.078;7.386;2023-04-25T12:56:54;11.70;;;2.42;;
79308;SDS011;68767;53.078;7.386;2023-04-25T12:59:21;9.52;;;2.10;;
79308;SDS011;68767;53.078;7.386;2023-04-25T13:01:48;10.02;;;2.38;;
79308;SDS011;68767;53.078;7.386;2023-04-25T13:04:15;9.85;;;2.08;;
79308;SDS011;68767;53.078;7.386;2023-04-25T13:06:43;8.25;;;2.15;;
79308;SDS011;68767;53.078;7.386;2023-04-25T13:09:10;6.97;;;1.70;;
79308;SDS011;68767;53.078;7.386;2023-04-25T13:11:39;9.20;;;1.83;;
79308;SDS011;68767;53.078;7.386;2023-04-25T13:14:07;7.10;;;2.20;;
79308;SDS011;68767;53.078;7.386;2023-04-25T13:16:34;5.80;;;1.55;;
79308;SDS011;68767;53.078;7.386;2023-04-25T13:19:01;10.38;;;1.90;;
79308;SDS011;68767;53.078;7.386;2023-04-25T13:21:29;6.28;;;1.77;;
79308;SDS011;68767;53.078;7.386;2023-04-25T13:24:00;7.72;;;1.75;;
79308;SDS011;68767;53.078;7.386;2023-04-25T13:26:27;7.07;;;2.22;;
79308;SDS011;68767;53.078;7.386;2023-04-25T13:28:54;7.10;;;2.03;;
79308;SDS011;68767;53.078;7.386;2023-04-25T13:31:21;6.88;;;1.80;;
79308;SDS011;68767;53.078;7.386;2023-04-25T13:33:48;6.82;;;1.60;;
79308;SDS011;68767;53.078;7.386;2023-04-25T13:36:15;6.40;;;1.65;;
79308;SDS011;68767;53.078;7.386;2023-04-25T13:38:42;8.10;;;2.03;;
79308;SDS011;68767;53.078;7.386;2023-04-25T13:41:10;10.60;;;1.80;;
79308;SDS011;68767;53.078;7.386;2023-04-25T13:43:42;9.02;;;2.25;;
79308;SDS011;68767;53.078;7.386;2023-04-25T13:46:08;4.97;;;1.65;;
79308;SDS011;68767;53.078;7.386;2023-04-25T13:48:56;7.85;;;1.58;;
79308;SDS011;68767;53.078;7.386;2023-04-25T13:51:37;7.97;;;1.70;;
79308;SDS011;68767;53.078;7.386;2023-04-25T13:54:04;5.63;;;1.88;;
79308;SDS011;68767;53.078;7.386;2023-04-25T13:56:31;9.85;;;2.22;;
79308;SDS011;68767;53.078;7.386;2023-04-25T13:58:58;10.13;;;1.52;;
79308;SDS011;68767;53.078;7.386;2023-04-25T14:01:24;12.10;;;3.75;;
79308;SDS011;68767;53.078;7.386;2023-04-25T14:03:52;3.10;;;1.23;;
79308;SDS011;68767;53.078;7.386;2023-04-25T14:06:20;6.28;;;1.45;;
79308;SDS011;68767;53.078;7.386;2023-04-25T14:08:52;6.88;;;1.10;;
79308;SDS011;68767;53.078;7.386;2023-04-25T14:11:20;7.50;;;1.40;;
79308;SDS011;68767;53.078;7.386;2023-04-25T14:13:47;6.85;;;1.40;;
79308;SDS011;68767;53.078;7.386;2023-04-25T14:16:16;4.90;;;1.17;;
79308;SDS011;68767;53.078;7.386;2023-04-25T14:18:43;7.22;;;1.50;;
79308;SDS011;68767;53.078;7.386;2023-04-25T14:21:10;3.35;;;1.20;;
79308;SDS011;68767;53.078;7.386;2023-04-25T14:23:37;5.30;;;1.30;;
79308;SDS011;68767;53.078;7.386;2023-04-25T14:26:04;6.60;;;1.45;;
79308;SDS011;68767;53.078;7.386;2023-04-25T14:28:31;8.82;;;1.88;;
79308;SDS011;68767;53.078;7.386;2023-04-25T14:30:58;5.93;;;1.60;;
79308;SDS011;68767;53.078;7.386;2023-04-25T14:33:25;9.82;;;1.73;;
79308;SDS011;68767;53.078;7.386;2023-04-25T14:35:52;8.93;;;1.40;;
79308;SDS011;68767;53.078;7.386;2023-04-25T14:38:19;12.98;;;2.45;;
79308;SDS011;68767;53.078;7.386;2023-04-25T14:40:49;4.15;;;1.10;;
79308;SDS011;68767;53.078;7.386;2023-04-25T14:43:17;10.52;;;1.55;;
79308;SDS011;68767;53.078;7.386;2023-04-25T14:45:44;7.35;;;1.77;;
79308;SDS011;68767;53.078;7.386;2023-04-25T14:48:11;5.70;;;1.70;;
79308;SDS011;68767;53.078;7.386;2023-04-25T14:50:38;11.07;;;1.63;;
79308;SDS011;68767;53.078;7.386;2023-04-25T14:53:05;7.47;;;1.70;;
79308;SDS011;68767;53.078;7.386;2023-04-25T14:55:32;7.82;;;1.55;;
79308;SDS011;68767;53.078;7.386;2023-04-25T14:57:59;6.75;;;1.77;;
79308;SDS011;68767;53.078;7.386;2023-04-25T15:00:26;7.97;;;1.65;;
79308;SDS011;68767;53.078;7.386;2023-04-25T15:02:53;8.80;;;1.77;;
79308;SDS011;68767;53.078;7.386;2023-04-25T15:05:20;4.50;;;1.50;;
79308;SDS011;68767;53.078;7.386;2023-04-25T15:07:47;8.98;;;2.30;;
79308;SDS011;68767;53.078;7.386;2023-04-25T15:10:14;4.78;;;1.63;;
79308;SDS011;68767;53.078;7.386;2023-04-25T15:12:42;7.13;;;1.40;;
79308;SDS011;68767;53.078;7.386;2023-04-25T15:15:12;1.85;;;0.93;;
79308;SDS011;68767;53.078;7.386;2023-04-25T15:17:50;8.32;;;1.40;;
79308;SDS011;68767;53.078;7.386;2023-04-25T15:20:18;8.43;;;1.50;;
79308;SDS011;68767;53.078;7.386;2023-04-25T15:22:44;2.78;;;1.05;;
79308;SDS011;68767;53.078;7.386;2023-04-25T15:25:12;5.22;;;1.42;;